Roseto, Pennsylvania
Current Conditions -  °F | °C
As of 9:51 PM on Sunday 23 Nov 2014 (Local Time) from KABE Reporting Station
Overcast Overcast  
Wind Chill:   Ceiling: 4800
Heat Index:   Visibility: 10mi
Dew Point: -1°   Wind: 5mph
Humidity: 52%   Direction: 70°ENE
Pressure: 30.01"   Gusts: NA
Location:  40.8463°N, 75.1731°W
Report Text: KABE 240251Z 07004KT 10SM OVC048 08/M01 A3001 RMK AO2 SLP164 T00831011 58026
Loading
Personal Weather Stations






























Interactive Weather Map New forecast layout! Learn more

10-Day Weather Forecast

Advertisements
Track Severe Weather on mobile